Eagle, Alaska
Current Conditions -  °F | °C
As of 11:53 PM on Wednesday 22 Oct 2014 (Local Time) from PAEG Reporting Station
Overcast Overcast  
Wind Chill: 14°   Ceiling: 4100
Heat Index: 14°   Visibility: 10mi
Dew Point: 10°   Wind: 0mph
Humidity: 84%   Direction: NA
Pressure: 29.7"   Gusts: NA
Location:  64.78°N, 141.21°W
Report Text: PAEG 230753Z AUTO 00000KT 10SM OVC041 M10/M12 A2970 RMK AO2 SLP072 T11001122 TSNO $
Loading
Personal Weather Stations






























Interactive Weather Map New forecast layout! Learn more

10-Day Weather Forecast

Advertisements
Track Severe Weather on mobile